createdAt,value
2018-03-23T00:00:17.804Z,27.45
2018-03-23T00:02:44.762Z,29.25
2018-03-23T00:05:12.389Z,28.73
2018-03-23T00:07:39.315Z,30.65
2018-03-23T00:10:06.268Z,30.42
2018-03-23T00:12:33.147Z,30.95
2018-03-23T00:15:00.827Z,30.23
2018-03-23T00:17:28.554Z,31.23
2018-03-23T00:19:55.413Z,30.10
2018-03-23T00:22:22.355Z,31.87
2018-03-23T00:24:49.280Z,30.60
2018-03-23T00:27:16.253Z,30.40
2018-03-23T00:29:43.116Z,35.00
2018-03-23T00:32:10.846Z,42.45
2018-03-23T00:34:37.705Z,29.15
2018-03-23T00:37:04.673Z,32.80
2018-03-23T00:39:31.524Z,31.00
2018-03-23T00:41:58.403Z,33.92
2018-03-23T00:44:25.346Z,34.30
2018-03-23T00:46:52.273Z,30.85
2018-03-23T00:49:19.283Z,31.20
2018-03-23T00:51:46.167Z,32.30
2018-03-23T00:54:13.093Z,33.47
2018-03-23T00:56:40.022Z,33.10
2018-03-23T00:59:07.715Z,30.67
2018-03-23T01:01:34.603Z,32.38
2018-03-23T01:04:01.565Z,32.72
2018-03-23T01:06:28.481Z,31.60
2018-03-23T01:08:55.427Z,30.35
2018-03-23T01:11:22.363Z,32.17
2018-03-23T01:13:49.315Z,33.47
2018-03-23T01:16:16.280Z,32.03
2018-03-23T01:18:43.201Z,30.52
2018-03-23T01:21:10.076Z,34.25
2018-03-23T01:23:37.067Z,31.50
2018-03-23T01:26:03.993Z,33.58
2018-03-23T01:28:30.911Z,33.22
2018-03-23T01:30:57.835Z,34.42
2018-03-23T01:33:24.779Z,33.90
2018-03-23T01:35:51.657Z,31.42
2018-03-23T01:38:18.587Z,31.55
2018-03-23T01:40:45.454Z,35.33
2018-03-23T01:43:12.422Z,33.80
2018-03-23T01:45:40.038Z,34.10
2018-03-23T01:48:06.920Z,32.47
2018-03-23T01:50:33.864Z,37.58
2018-03-23T01:53:00.724Z,31.83
2018-03-23T01:55:28.464Z,33.00
2018-03-23T01:57:55.388Z,31.00
2018-03-23T02:00:22.257Z,35.25
2018-03-23T02:02:49.190Z,32.20
2018-03-23T02:05:16.055Z,32.78
2018-03-23T02:07:43.688Z,31.83
2018-03-23T02:10:10.640Z,34.38
2018-03-23T02:12:37.582Z,33.20
2018-03-23T02:15:04.471Z,34.95
2018-03-23T02:17:32.075Z,33.10
2018-03-23T02:19:59.045Z,33.40
2018-03-23T02:22:26.021Z,35.67
2018-03-23T02:24:52.904Z,33.80
2018-03-23T02:27:19.841Z,31.75
2018-03-23T02:29:46.770Z,35.05
2018-03-23T02:32:13.813Z,35.40
2018-03-23T02:34:41.429Z,35.25
2018-03-23T02:37:08.295Z,34.25
2018-03-23T02:39:35.220Z,34.50
2018-03-23T02:42:02.149Z,33.00
2018-03-23T02:44:29.114Z,33.97
2018-03-23T02:46:56.055Z,31.58
2018-03-23T02:49:22.994Z,30.85
2018-03-23T02:51:49.898Z,34.33
2018-03-23T02:54:17.573Z,32.00
2018-03-23T02:56:44.469Z,32.72
2018-03-23T02:59:11.409Z,32.72
2018-03-23T03:01:38.371Z,31.95
2018-03-23T03:04:05.287Z,32.30
2018-03-23T03:06:32.152Z,31.83
2018-03-23T03:08:59.066Z,32.85
2018-03-23T03:11:25.997Z,33.40
2018-03-23T03:13:52.874Z,33.05
2018-03-23T03:16:19.835Z,28.92
2018-03-23T03:18:46.757Z,30.60
2018-03-23T03:21:13.707Z,34.33
2018-03-23T03:23:40.651Z,32.40
2018-03-23T03:26:07.568Z,32.38
2018-03-23T03:28:34.488Z,31.85
2018-03-23T03:31:02.196Z,34.85
2018-03-23T03:33:29.089Z,31.58
2018-03-23T03:35:56.016Z,34.40
2018-03-23T03:38:22.928Z,31.75
2018-03-23T03:40:49.792Z,33.65
2018-03-23T03:43:16.696Z,32.15
2018-03-23T03:45:43.564Z,32.75
2018-03-23T03:48:10.491Z,32.70
2018-03-23T03:50:37.407Z,34.65
2018-03-23T03:53:05.032Z,32.20
2018-03-23T03:55:31.998Z,34.53
2018-03-23T03:57:58.868Z,31.92
2018-03-23T04:00:25.788Z,32.28
2018-03-23T04:02:52.666Z,32.38
2018-03-23T04:05:20.331Z,39.05
2018-03-23T04:07:47.220Z,35.30
2018-03-23T04:10:14.208Z,32.60
2018-03-23T04:12:41.822Z,31.40
2018-03-23T04:15:08.764Z,32.42
2018-03-23T04:17:35.629Z,33.08
2018-03-23T04:20:02.575Z,33.88
2018-03-23T04:22:29.504Z,31.15
2018-03-23T04:24:56.365Z,32.00
2018-03-23T04:27:23.336Z,31.85
2018-03-23T04:29:50.332Z,30.58
2018-03-23T04:32:17.269Z,32.85
2018-03-23T04:34:44.187Z,31.05
2018-03-23T04:37:11.148Z,33.35
2018-03-23T04:39:38.035Z,30.40
2018-03-23T04:42:04.987Z,28.80
2018-03-23T04:44:31.839Z,32.08
2018-03-23T04:46:58.771Z,32.30
2018-03-23T04:49:25.687Z,30.73
2018-03-23T04:51:52.564Z,32.22
2018-03-23T04:54:19.495Z,32.17
2018-03-23T04:56:46.440Z,31.10
2018-03-23T04:59:13.364Z,32.33
2018-03-23T05:01:40.283Z,31.20
2018-03-23T05:04:08.023Z,30.02
2018-03-23T05:06:34.968Z,29.87
2018-03-23T05:09:01.831Z,30.37
2018-03-23T05:11:28.824Z,32.17
2018-03-23T05:13:55.682Z,30.15
2018-03-23T05:16:22.607Z,31.00
2018-03-23T05:18:49.485Z,31.73
2018-03-23T05:21:16.441Z,31.55
2018-03-23T05:23:43.349Z,37.13
2018-03-23T05:26:11.611Z,32.53
2018-03-23T05:28:52.689Z,30.50
2018-03-23T05:31:20.204Z,29.30
2018-03-23T05:33:47.166Z,30.33
2018-03-23T05:36:14.043Z,33.88
2018-03-23T05:38:40.923Z,31.62
2018-03-23T05:41:11.292Z,31.83
2018-03-23T05:43:39.055Z,32.35
2018-03-23T05:46:07.137Z,32.25
2018-03-23T05:48:34.739Z,32.70
2018-03-23T05:51:01.668Z,31.23
2018-03-23T05:53:28.552Z,34.30
2018-03-23T05:55:55.546Z,33.75
2018-03-23T05:58:23.211Z,34.08
2018-03-23T06:00:50.141Z,33.05
2018-03-23T06:03:17.840Z,32.10
2018-03-23T06:05:44.739Z,33.72
2018-03-23T06:08:11.719Z,34.03
2018-03-23T06:10:39.647Z,33.35
2018-03-23T06:13:18.505Z,34.50
2018-03-23T06:15:46.135Z,32.90
2018-03-23T06:18:13.072Z,32.83
2018-03-23T06:20:40.085Z,36.85
2018-03-23T06:23:06.959Z,34.50
2018-03-23T06:25:33.892Z,34.30
2018-03-23T06:28:00.814Z,33.15
2018-03-23T06:30:27.763Z,35.88
2018-03-23T06:32:54.630Z,33.75
2018-03-23T06:35:21.598Z,33.55
2018-03-23T06:37:48.555Z,36.15
2018-03-23T06:40:15.490Z,37.78
2018-03-23T06:42:42.362Z,36.85
2018-03-23T06:45:10.040Z,39.10
2018-03-23T06:47:36.912Z,33.13
2018-03-23T06:50:03.855Z,35.78
2018-03-23T06:52:30.779Z,36.33
2018-03-23T06:54:57.663Z,39.20
2018-03-23T06:57:24.588Z,37.33
2018-03-23T06:59:51.464Z,36.42
2018-03-23T07:02:18.402Z,36.58
2018-03-23T07:04:45.435Z,35.05
2018-03-23T07:07:12.409Z,34.53
2018-03-23T07:09:39.268Z,35.08
2018-03-23T07:12:07.231Z,37.15
2018-03-23T07:14:34.106Z,33.88
2018-03-23T07:17:01.833Z,34.97
2018-03-23T07:19:28.770Z,36.05
2018-03-23T07:21:55.740Z,34.60
2018-03-23T07:24:23.512Z,34.38
2018-03-23T07:26:50.402Z,34.33
2018-03-23T07:29:17.351Z,33.28
2018-03-23T07:31:44.361Z,44.38
2018-03-23T07:34:12.037Z,38.88
2018-03-23T07:36:38.963Z,33.42
2018-03-23T07:39:06.759Z,34.17
2018-03-23T07:41:33.693Z,34.17
2018-03-23T07:44:01.462Z,34.97
2018-03-23T07:46:28.402Z,35.90
2018-03-23T07:48:56.030Z,33.20
2018-03-23T07:51:23.009Z,33.38
2018-03-23T07:54:03.027Z,33.10
2018-03-23T07:56:31.663Z,33.65
2018-03-23T07:58:58.715Z,33.92
2018-03-23T08:01:31.265Z,35.38
2018-03-23T08:03:59.044Z,32.88
2018-03-23T08:06:26.125Z,32.75
2018-03-23T08:08:53.003Z,31.12
2018-03-23T08:11:20.000Z,33.88
2018-03-23T08:13:46.897Z,31.37
2018-03-23T08:16:13.869Z,30.10
2018-03-23T08:18:40.823Z,30.20
2018-03-23T08:21:08.330Z,29.87
2018-03-23T08:23:35.213Z,30.60
2018-03-23T08:26:02.926Z,31.73
2018-03-23T08:28:29.843Z,31.90
2018-03-23T08:30:57.490Z,30.80
2018-03-23T08:33:25.195Z,31.87
2018-03-23T08:35:52.135Z,31.30
2018-03-23T08:38:19.094Z,31.20
2018-03-23T08:40:46.057Z,31.83
2018-03-23T08:43:13.020Z,31.67
2018-03-23T08:45:40.740Z,29.63
2018-03-23T08:48:07.761Z,30.30
2018-03-23T08:50:34.660Z,30.20
2018-03-23T08:53:01.555Z,31.48
2018-03-23T08:55:28.545Z,31.02
2018-03-23T08:57:55.515Z,33.17
2018-03-23T09:00:22.392Z,28.92
2018-03-23T09:02:49.340Z,32.75
2018-03-23T09:05:16.331Z,30.00
2018-03-23T09:07:43.226Z,31.50
2018-03-23T09:10:10.929Z,31.23
2018-03-23T09:12:37.883Z,31.23
2018-03-23T09:15:04.874Z,31.93
2018-03-23T09:17:32.568Z,27.80
2018-03-23T09:19:59.454Z,29.17
2018-03-23T09:22:26.348Z,30.30
2018-03-23T09:24:53.344Z,31.83
2018-03-23T09:27:20.244Z,31.05
2018-03-23T09:29:47.181Z,29.55
2018-03-23T09:32:15.239Z,29.65
2018-03-23T09:34:42.127Z,28.23
2018-03-23T09:37:09.132Z,30.20
2018-03-23T09:39:36.834Z,27.63
2018-03-23T09:42:03.761Z,28.77
2018-03-23T09:44:31.442Z,28.87
2018-03-23T09:46:58.399Z,28.63
2018-03-23T09:49:25.333Z,26.10
2018-03-23T09:51:52.200Z,28.60
2018-03-23T09:54:19.131Z,26.83
2018-03-23T09:56:46.092Z,27.13
2018-03-23T09:59:12.955Z,28.80
2018-03-23T10:01:39.850Z,28.70
2018-03-23T10:04:06.905Z,29.10
2018-03-23T10:06:33.806Z,25.57
2018-03-23T10:09:11.668Z,22.67
2018-03-23T10:11:38.619Z,25.93
2018-03-23T10:14:05.496Z,22.97
2018-03-23T10:16:32.436Z,25.30
2018-03-23T10:19:03.272Z,24.67
2018-03-23T10:21:30.201Z,25.53
2018-03-23T10:23:57.181Z,24.33
2018-03-23T10:26:24.072Z,22.80
2018-03-23T10:28:53.020Z,22.53
2018-03-23T10:31:19.932Z,23.83
2018-03-23T10:33:49.724Z,23.17
2018-03-23T10:36:16.856Z,23.33
2018-03-23T10:38:44.110Z,22.97
2018-03-23T10:41:15.015Z,22.73
2018-03-23T10:43:42.157Z,24.17
2018-03-23T10:46:13.059Z,22.57
2018-03-23T10:48:39.956Z,23.37
2018-03-23T10:51:08.877Z,21.97
2018-03-23T10:53:37.861Z,24.50
2018-03-23T10:56:04.900Z,22.17
2018-03-23T10:58:32.583Z,24.43
2018-03-23T11:01:06.185Z,23.80
2018-03-23T11:03:33.881Z,21.63
2018-03-23T11:06:00.833Z,22.73
2018-03-23T11:08:33.523Z,22.70
2018-03-23T11:11:03.107Z,21.80
2018-03-23T11:13:32.175Z,23.10
2018-03-23T11:16:00.660Z,19.43
2018-03-23T11:18:39.755Z,23.23
2018-03-23T11:21:15.944Z,19.40
2018-03-23T11:23:55.328Z,21.43
2018-03-23T11:26:26.090Z,22.57
2018-03-23T11:29:00.182Z,23.07
2018-03-23T11:31:37.517Z,19.50
2018-03-23T11:34:11.474Z,19.27
2018-03-23T11:36:43.864Z,17.70
2018-03-23T11:39:15.034Z,18.60
2018-03-23T11:41:47.034Z,18.63
2018-03-23T11:44:21.065Z,18.60
2018-03-23T11:46:52.585Z,19.80
2018-03-23T11:49:30.177Z,19.63
2018-03-23T11:52:02.728Z,18.10
2018-03-23T11:54:41.804Z,18.43
2018-03-23T11:57:11.515Z,17.63
2018-03-23T11:59:48.026Z,17.47
2018-03-23T12:02:21.690Z,17.57
2018-03-23T12:07:39.951Z,16.77
2018-03-23T12:10:15.899Z,17.87
2018-03-23T12:12:47.426Z,17.27
2018-03-23T12:15:25.875Z,18.30
2018-03-23T12:17:59.016Z,18.67
2018-03-23T12:20:30.212Z,17.97
2018-03-23T12:23:02.768Z,18.77
2018-03-23T12:25:32.296Z,19.20
2018-03-23T12:28:02.970Z,18.70
2018-03-23T12:30:40.382Z,20.53
2018-03-23T12:33:10.580Z,21.80
2018-03-23T12:35:43.685Z,22.47
2018-03-23T12:38:21.641Z,20.63
2018-03-23T12:41:00.022Z,20.07
2018-03-23T12:43:38.480Z,20.10
2018-03-23T12:46:09.717Z,19.07
2018-03-23T12:48:40.745Z,21.90
2018-03-23T12:51:17.577Z,21.30
2018-03-23T12:53:57.528Z,19.40
2018-03-23T12:56:30.854Z,20.00
2018-03-23T12:59:06.150Z,17.57
2018-03-23T13:01:46.566Z,19.23
2018-03-23T13:04:19.804Z,19.83
2018-03-23T13:06:57.459Z,19.00
2018-03-23T13:09:33.874Z,19.13
2018-03-23T13:12:09.803Z,18.33
2018-03-23T13:14:50.828Z,17.60
2018-03-23T13:17:24.718Z,20.43
2018-03-23T13:20:00.188Z,19.20
2018-03-23T13:22:35.223Z,18.87
2018-03-23T13:25:13.943Z,20.10
2018-03-23T13:27:55.692Z,19.30
2018-03-23T13:30:26.386Z,18.30
2018-03-23T13:32:57.265Z,20.67
2018-03-23T13:35:30.332Z,18.20
2018-03-23T13:38:11.739Z,18.37
2018-03-23T13:40:48.963Z,19.43
2018-03-23T13:43:29.486Z,19.00
2018-03-23T13:46:01.452Z,17.87
2018-03-23T13:48:41.089Z,18.20
2018-03-23T13:51:11.220Z,18.80
2018-03-23T13:53:47.855Z,17.50
2018-03-23T13:56:22.025Z,18.07
2018-03-23T13:59:00.811Z,17.10
2018-03-23T14:01:41.051Z,18.87
2018-03-23T14:04:20.578Z,17.27
2018-03-23T14:06:52.806Z,16.80
2018-03-23T14:09:29.367Z,16.40
2018-03-23T14:12:09.681Z,17.67
2018-03-23T14:14:51.304Z,16.50
2018-03-23T14:17:27.533Z,16.30
2018-03-23T14:20:00.999Z,14.90
2018-03-23T14:22:39.972Z,15.10
2018-03-23T14:25:18.688Z,13.80
2018-03-23T14:27:57.066Z,15.50
2018-03-23T14:30:35.155Z,14.67
2018-03-23T14:33:08.991Z,14.27
2018-03-23T14:38:23.674Z,11.90
2018-03-23T14:41:01.587Z,12.20
2018-03-23T14:43:39.933Z,11.50
2018-03-23T14:46:19.696Z,12.20
2018-03-23T14:48:58.039Z,13.40
2018-03-23T14:51:37.469Z,13.20
2018-03-23T14:54:13.816Z,14.53
2018-03-23T14:56:50.283Z,14.00
2018-03-23T14:59:25.905Z,13.37
2018-03-23T15:02:03.979Z,12.20
2018-03-23T15:04:44.169Z,13.30
2018-03-23T15:07:19.765Z,12.67
2018-03-23T15:09:51.620Z,12.80
2018-03-23T15:12:19.181Z,15.07
2018-03-23T15:14:50.505Z,14.37
2018-03-23T15:17:18.257Z,14.60
2018-03-23T15:19:50.367Z,15.03
2018-03-23T15:22:20.013Z,14.47
2018-03-23T15:24:54.024Z,16.50
2018-03-23T15:27:34.610Z,16.50
2018-03-23T15:30:08.057Z,15.50
2018-03-23T15:32:36.111Z,15.60
2018-03-23T15:35:12.288Z,13.33
2018-03-23T15:37:53.557Z,15.67
2018-03-23T15:40:37.004Z,16.47
2018-03-23T15:43:17.875Z,16.93
2018-03-23T15:45:54.937Z,16.03
2018-03-23T15:48:37.151Z,15.40
2018-03-23T15:51:18.274Z,17.63
2018-03-23T15:59:22.364Z,16.70
2018-03-23T16:02:01.482Z,16.50
2018-03-23T16:04:40.376Z,16.07
2018-03-23T16:10:03.217Z,18.00
2018-03-23T16:12:43.223Z,18.10
2018-03-23T16:15:23.076Z,19.53
2018-03-23T16:18:04.000Z,17.43
2018-03-23T16:20:43.432Z,16.90
2018-03-23T16:23:23.408Z,17.60
2018-03-23T16:26:02.455Z,19.10
2018-03-23T16:28:42.537Z,20.00
2018-03-23T16:31:22.332Z,18.13
2018-03-23T16:34:02.670Z,19.00
2018-03-23T16:36:41.766Z,18.83
2018-03-23T16:39:21.726Z,20.47
2018-03-23T16:42:01.081Z,19.90
2018-03-23T16:44:41.047Z,22.03
2018-03-23T16:47:09.307Z,20.10
2018-03-23T16:49:46.961Z,19.23
2018-03-23T16:52:25.215Z,20.93
2018-03-23T16:55:06.278Z,19.47
2018-03-23T16:57:47.166Z,21.00
2018-03-23T17:00:50.068Z,20.20
2018-03-23T17:03:33.383Z,21.00
2018-03-23T17:06:01.381Z,21.33
2018-03-23T17:08:28.321Z,20.83
2018-03-23T17:10:55.995Z,22.07
2018-03-23T17:13:22.955Z,21.40
2018-03-23T17:15:49.972Z,21.60
2018-03-23T17:18:17.584Z,20.00
2018-03-23T17:20:44.551Z,22.67
2018-03-23T17:23:11.454Z,22.13
2018-03-23T17:25:38.399Z,20.57
2018-03-23T17:28:05.310Z,21.90
2018-03-23T17:30:32.278Z,21.77
2018-03-23T17:32:59.904Z,21.30
2018-03-23T17:35:26.798Z,20.00
2018-03-23T17:37:53.802Z,20.97
2018-03-23T17:40:20.704Z,21.63
2018-03-23T17:42:47.664Z,22.50
2018-03-23T17:45:14.626Z,21.77
2018-03-23T17:47:41.512Z,22.10
2018-03-23T17:50:08.462Z,21.12
2018-03-23T17:52:35.353Z,21.10
2018-03-23T17:55:02.311Z,21.33
2018-03-23T17:57:29.189Z,22.80
2018-03-23T17:59:56.999Z,23.20
2018-03-23T18:02:23.997Z,22.90
2018-03-23T18:04:50.961Z,21.50
2018-03-23T18:07:18.663Z,23.13
2018-03-23T18:09:45.755Z,21.43
2018-03-23T18:12:12.649Z,20.87
2018-03-23T18:14:39.605Z,22.50
2018-03-23T18:17:06.631Z,21.80
2018-03-23T18:19:33.524Z,22.83
2018-03-23T18:22:00.410Z,21.57
2018-03-23T18:24:27.380Z,22.65
2018-03-23T18:26:54.333Z,21.03
2018-03-23T18:29:21.316Z,22.45
2018-03-23T18:31:49.058Z,20.50
2018-03-23T18:34:16.140Z,21.53
2018-03-23T18:36:43.816Z,20.85
2018-03-23T18:39:11.552Z,20.83
2018-03-23T18:41:38.507Z,20.83
2018-03-23T18:44:05.464Z,22.40
2018-03-23T18:46:33.143Z,23.20
2018-03-23T18:49:00.024Z,22.90
2018-03-23T18:51:27.034Z,21.17
2018-03-23T18:53:54.696Z,21.40
2018-03-23T18:56:21.647Z,22.90
2018-03-23T18:58:48.588Z,21.50
2018-03-23T19:01:15.541Z,21.30
2018-03-23T19:03:42.456Z,22.57
2018-03-23T19:06:09.426Z,22.70
2018-03-23T19:08:37.075Z,21.30
2018-03-23T19:11:03.958Z,19.60
2018-03-23T19:13:30.966Z,21.00
2018-03-23T19:15:58.587Z,23.38
2018-03-23T19:18:25.535Z,22.50
2018-03-23T19:20:52.453Z,22.52
2018-03-23T19:23:19.426Z,22.62
2018-03-23T19:25:46.318Z,21.57
2018-03-23T19:28:14.062Z,23.35
2018-03-23T19:30:40.972Z,24.30
2018-03-23T19:33:07.959Z,22.60
2018-03-23T19:35:34.866Z,20.90
2018-03-23T19:38:01.828Z,21.43
2018-03-23T19:40:28.985Z,21.33
2018-03-23T19:42:55.949Z,20.93
2018-03-23T19:45:22.945Z,22.60
2018-03-23T19:47:49.815Z,21.10
2018-03-23T19:50:16.710Z,21.67
2018-03-23T19:52:43.653Z,22.13
2018-03-23T19:55:11.320Z,22.17
2018-03-23T19:57:39.016Z,21.80
2018-03-23T20:00:05.995Z,23.40
2018-03-23T20:02:32.935Z,20.77
2018-03-23T20:04:59.846Z,22.07
2018-03-23T20:07:26.803Z,22.15
2018-03-23T20:09:53.678Z,21.35
2018-03-23T20:12:20.640Z,22.65
2018-03-23T20:14:47.539Z,23.92
2018-03-23T20:17:14.589Z,22.33
2018-03-23T20:19:41.561Z,24.50
2018-03-23T20:22:08.477Z,21.47
2018-03-23T20:24:35.436Z,24.90
2018-03-23T20:27:02.403Z,24.20
2018-03-23T20:29:29.335Z,22.37
2018-03-23T20:32:02.341Z,24.00
2018-03-23T20:34:29.272Z,27.10
2018-03-23T20:36:56.158Z,24.23
2018-03-23T20:39:23.837Z,25.57
2018-03-23T20:41:50.770Z,24.67
2018-03-23T20:44:17.724Z,22.77
2018-03-23T20:46:44.649Z,24.75
2018-03-23T20:49:12.351Z,35.08
2018-03-23T20:51:39.337Z,36.13
2018-03-23T20:54:18.244Z,28.27
2018-03-23T20:56:56.601Z,25.88
2018-03-23T20:59:36.090Z,24.27
2018-03-23T21:02:15.729Z,23.60
2018-03-23T21:04:55.276Z,23.10
2018-03-23T21:07:22.913Z,27.20
2018-03-23T21:10:01.662Z,25.53
2018-03-23T21:12:40.185Z,24.70
2018-03-23T21:15:20.044Z,24.30
2018-03-23T21:17:58.860Z,24.07
2018-03-23T21:20:37.758Z,23.70
2018-03-23T21:23:17.340Z,23.70
2018-03-23T21:25:56.832Z,27.52
2018-03-23T21:28:35.461Z,37.13
2018-03-23T21:31:11.693Z,29.50
2018-03-23T21:33:45.725Z,26.37
2018-03-23T21:36:12.984Z,24.83
2018-03-23T21:38:39.872Z,23.98
2018-03-23T21:41:14.754Z,22.08
2018-03-23T21:43:54.129Z,24.85
2018-03-23T21:46:33.847Z,23.73
2018-03-23T21:49:02.217Z,22.65
2018-03-23T21:51:29.216Z,22.90
2018-03-23T21:53:56.130Z,23.10
2018-03-23T21:56:23.032Z,23.83
2018-03-23T21:58:49.989Z,25.12
2018-03-23T22:01:17.652Z,24.23
2018-03-23T22:03:44.596Z,22.67
2018-03-23T22:06:12.296Z,24.02
2018-03-23T22:08:39.203Z,22.27
2018-03-23T22:11:06.157Z,21.85
2018-03-23T22:13:33.227Z,22.80
2018-03-23T22:16:00.109Z,23.70
2018-03-23T22:18:27.089Z,23.15
2018-03-23T22:20:56.446Z,24.00
2018-03-23T22:23:24.069Z,23.60
2018-03-23T22:25:51.720Z,24.12
2018-03-23T22:28:19.399Z,24.87
2018-03-23T22:30:47.101Z,22.73
2018-03-23T22:33:14.057Z,24.00
2018-03-23T22:35:51.449Z,23.25
2018-03-23T22:38:25.433Z,24.60
2018-03-23T22:41:04.092Z,26.90
2018-03-23T22:43:31.768Z,26.90
2018-03-23T22:45:58.721Z,24.55
2018-03-23T22:48:25.587Z,27.80
2018-03-23T22:51:03.812Z,27.13
2018-03-23T22:53:33.194Z,28.30
2018-03-23T22:56:00.181Z,27.52
2018-03-23T22:58:38.819Z,27.83
2018-03-23T23:01:18.638Z,28.58
2018-03-23T23:03:46.506Z,27.40
2018-03-23T23:06:21.460Z,27.65
2018-03-23T23:08:59.241Z,28.58
2018-03-23T23:11:26.958Z,25.95
2018-03-23T23:13:59.139Z,29.33
2018-03-23T23:16:38.737Z,29.95
2018-03-23T23:19:18.835Z,28.77
2018-03-23T23:21:59.020Z,27.52
2018-03-23T23:24:31.246Z,27.33
2018-03-23T23:27:05.100Z,30.60
2018-03-23T23:29:43.798Z,28.67
2018-03-23T23:32:21.492Z,26.92
2018-03-23T23:34:59.763Z,26.92
2018-03-23T23:37:38.976Z,26.00
2018-03-23T23:40:12.835Z,28.38
2018-03-23T23:42:47.607Z,27.13
2018-03-23T23:45:25.996Z,27.90
2018-03-23T23:48:04.662Z,27.10
2018-03-23T23:50:43.836Z,25.98
2018-03-23T23:53:12.228Z,26.70
2018-03-23T23:55:39.937Z,23.92
2018-03-23T23:58:06.885Z,26.65
